Terminal Aerodrome Forecast
Issued by NWS St Louis, MO

Home | Current Version | Previous Version | Text Only | Print | Product List | Glossary On
Versions: 1 2 3 4 5 6 7 8 9 10 11 12 13 14 15 16 17 18 19 20 21 22 23 24 25 26 27 28 29 30 31 32 33
573
FTUS43 KLSX 150529
TAFSTL
TAF
KSTL 150529Z 1506/1612 20007KT P6SM BKN250
     FM150800 20007KT P6SM OVC012
     FM151400 20009KT P6SM -SHRA OVC015
     FM151700 22012G20KT P6SM VCSH OVC050
     FM152100 25012G18KT P6SM -SHRA OVC050
     FM160000 30013G21KT P6SM OVC050
     FM160800 33012G22KT P6SM OVC025=

USA.gov is the U.S. government's official web portal to all federal, state and local government web resources and services.